Claymont, Delaware
Current Conditions -  °F | °C
As of 2:51 AM on Wednesday 26 Nov 2014 (Local Time) from KILG Reporting Station
Overcast Overcast  
Wind Chill: 43°   Ceiling: 7000
Heat Index: 45°   Visibility: 10mi
Dew Point: 37°   Wind: 5mph
Humidity: 74%   Direction: 340°NNW
Pressure: 30.18"   Gusts: NA
Location:  39.8°N, 75.46°W
Report Text: KILG 260751Z 34004KT 10SM OVC070 07/03 A3018 RMK AO2 SLP218 T00720028
Loading
Personal Weather Stations






























Interactive Weather Map New forecast layout! Learn more

10-Day Weather Forecast

Advertisements
Track Severe Weather on mobile